sensor_id;sensor_type;location;lat;lon;timestamp;P1;durP1;ratioP1;P2;durP2;ratioP2
65096;SDS011;51686;46.758;4.356;2023-12-14T00:02:45;10.43;;;5.32;;
65096;SDS011;51686;46.758;4.356;2023-12-14T00:05:32;11.30;;;5.13;;
65096;SDS011;51686;46.758;4.356;2023-12-14T00:08:19;9.93;;;5.07;;
65096;SDS011;51686;46.758;4.356;2023-12-14T00:11:06;11.20;;;5.32;;
65096;SDS011;51686;46.758;4.356;2023-12-14T00:13:54;9.77;;;4.75;;
65096;SDS011;51686;46.758;4.356;2023-12-14T00:16:41;10.02;;;4.97;;
65096;SDS011;51686;46.758;4.356;2023-12-14T00:19:28;10.43;;;5.15;;
65096;SDS011;51686;46.758;4.356;2023-12-14T00:22:15;10.60;;;5.35;;
65096;SDS011;51686;46.758;4.356;2023-12-14T00:25:02;8.77;;;4.18;;
65096;SDS011;51686;46.758;4.356;2023-12-14T00:27:49;9.60;;;4.47;;
65096;SDS011;51686;46.758;4.356;2023-12-14T00:30:36;9.70;;;4.45;;
65096;SDS011;51686;46.758;4.356;2023-12-14T00:33:23;9.15;;;4.63;;
65096;SDS011;51686;46.758;4.356;2023-12-14T00:36:16;8.90;;;4.50;;
65096;SDS011;51686;46.758;4.356;2023-12-14T00:39:04;8.23;;;3.92;;
65096;SDS011;51686;46.758;4.356;2023-12-14T00:41:51;9.43;;;4.22;;
65096;SDS011;51686;46.758;4.356;2023-12-14T00:44:38;8.27;;;3.90;;
65096;SDS011;51686;46.758;4.356;2023-12-14T00:47:25;8.70;;;4.07;;
65096;SDS011;51686;46.758;4.356;2023-12-14T00:50:12;8.57;;;4.10;;
65096;SDS011;51686;46.758;4.356;2023-12-14T00:52:59;8.13;;;4.00;;
65096;SDS011;51686;46.758;4.356;2023-12-14T00:55:46;9.18;;;3.90;;
65096;SDS011;51686;46.758;4.356;2023-12-14T00:58:33;8.25;;;4.10;;
65096;SDS011;51686;46.758;4.356;2023-12-14T01:01:20;8.23;;;3.55;;
65096;SDS011;51686;46.758;4.356;2023-12-14T01:04:07;8.90;;;3.80;;
65096;SDS011;51686;46.758;4.356;2023-12-14T01:06:53;8.82;;;3.92;;
65096;SDS011;51686;46.758;4.356;2023-12-14T01:09:40;8.38;;;3.75;;
65096;SDS011;51686;46.758;4.356;2023-12-14T01:12:27;8.77;;;3.55;;
65096;SDS011;51686;46.758;4.356;2023-12-14T01:15:14;7.38;;;3.28;;
65096;SDS011;51686;46.758;4.356;2023-12-14T01:18:01;7.53;;;3.13;;
65096;SDS011;51686;46.758;4.356;2023-12-14T01:20:48;7.55;;;3.28;;
65096;SDS011;51686;46.758;4.356;2023-12-14T01:23:35;6.82;;;3.22;;
65096;SDS011;51686;46.758;4.356;2023-12-14T01:26:22;8.02;;;3.47;;
65096;SDS011;51686;46.758;4.356;2023-12-14T01:29:09;7.45;;;3.13;;
65096;SDS011;51686;46.758;4.356;2023-12-14T01:31:56;7.63;;;3.40;;
65096;SDS011;51686;46.758;4.356;2023-12-14T01:34:43;8.52;;;3.28;;
65096;SDS011;51686;46.758;4.356;2023-12-14T01:37:29;7.38;;;3.03;;
65096;SDS011;51686;46.758;4.356;2023-12-14T01:40:18;7.00;;;2.88;;
65096;SDS011;51686;46.758;4.356;2023-12-14T01:43:07;7.35;;;3.00;;
65096;SDS011;51686;46.758;4.356;2023-12-14T01:45:55;6.65;;;3.05;;
65096;SDS011;51686;46.758;4.356;2023-12-14T01:48:42;7.30;;;3.20;;
65096;SDS011;51686;46.758;4.356;2023-12-14T01:51:29;6.85;;;2.70;;
65096;SDS011;51686;46.758;4.356;2023-12-14T01:54:15;6.50;;;3.00;;
65096;SDS011;51686;46.758;4.356;2023-12-14T01:57:02;6.78;;;3.00;;
65096;SDS011;51686;46.758;4.356;2023-12-14T01:59:49;5.35;;;2.35;;
65096;SDS011;51686;46.758;4.356;2023-12-14T02:02:36;6.03;;;2.50;;
65096;SDS011;51686;46.758;4.356;2023-12-14T02:05:24;6.03;;;2.33;;
65096;SDS011;51686;46.758;4.356;2023-12-14T02:08:11;5.78;;;2.60;;
65096;SDS011;51686;46.758;4.356;2023-12-14T02:10:58;6.63;;;2.90;;
65096;SDS011;51686;46.758;4.356;2023-12-14T02:13:45;6.43;;;2.60;;
65096;SDS011;51686;46.758;4.356;2023-12-14T02:16:32;6.13;;;2.55;;
65096;SDS011;51686;46.758;4.356;2023-12-14T02:19:19;6.38;;;2.85;;
65096;SDS011;51686;46.758;4.356;2023-12-14T02:22:06;6.43;;;2.60;;
65096;SDS011;51686;46.758;4.356;2023-12-14T02:24:53;5.32;;;2.30;;
65096;SDS011;51686;46.758;4.356;2023-12-14T02:27:40;6.00;;;2.42;;
65096;SDS011;51686;46.758;4.356;2023-12-14T02:30:27;5.75;;;2.30;;
65096;SDS011;51686;46.758;4.356;2023-12-14T02:33:13;6.55;;;2.60;;
65096;SDS011;51686;46.758;4.356;2023-12-14T02:36:01;6.28;;;2.63;;
65096;SDS011;51686;46.758;4.356;2023-12-14T02:41:37;6.30;;;2.72;;
65096;SDS011;51686;46.758;4.356;2023-12-14T02:44:24;4.97;;;2.17;;
65096;SDS011;51686;46.758;4.356;2023-12-14T02:47:10;6.05;;;2.47;;
65096;SDS011;51686;46.758;4.356;2023-12-14T02:49:57;5.40;;;2.28;;
65096;SDS011;51686;46.758;4.356;2023-12-14T02:52:44;5.95;;;2.50;;
65096;SDS011;51686;46.758;4.356;2023-12-14T02:55:31;6.20;;;2.72;;
65096;SDS011;51686;46.758;4.356;2023-12-14T02:58:18;5.32;;;2.20;;
65096;SDS011;51686;46.758;4.356;2023-12-14T03:01:05;5.50;;;2.45;;
65096;SDS011;51686;46.758;4.356;2023-12-14T03:03:52;5.47;;;2.40;;
65096;SDS011;51686;46.758;4.356;2023-12-14T03:06:39;6.20;;;2.45;;
65096;SDS011;51686;46.758;4.356;2023-12-14T03:09:26;6.15;;;2.50;;
65096;SDS011;51686;46.758;4.356;2023-12-14T03:12:13;5.30;;;2.47;;
65096;SDS011;51686;46.758;4.356;2023-12-14T03:15:00;5.22;;;2.28;;
65096;SDS011;51686;46.758;4.356;2023-12-14T03:17:47;5.22;;;2.45;;
65096;SDS011;51686;46.758;4.356;2023-12-14T03:20:34;5.30;;;2.40;;
65096;SDS011;51686;46.758;4.356;2023-12-14T03:23:20;4.90;;;2.30;;
65096;SDS011;51686;46.758;4.356;2023-12-14T03:26:07;6.25;;;2.55;;
65096;SDS011;51686;46.758;4.356;2023-12-14T03:28:54;6.25;;;2.55;;
65096;SDS011;51686;46.758;4.356;2023-12-14T03:31:41;6.43;;;2.50;;
65096;SDS011;51686;46.758;4.356;2023-12-14T03:34:28;6.70;;;2.63;;
65096;SDS011;51686;46.758;4.356;2023-12-14T03:37:15;5.85;;;2.55;;
65096;SDS011;51686;46.758;4.356;2023-12-14T03:40:02;5.85;;;2.60;;
65096;SDS011;51686;46.758;4.356;2023-12-14T03:42:50;7.03;;;3.00;;
65096;SDS011;51686;46.758;4.356;2023-12-14T03:45:37;6.40;;;2.78;;
65096;SDS011;51686;46.758;4.356;2023-12-14T03:48:24;6.13;;;2.58;;
65096;SDS011;51686;46.758;4.356;2023-12-14T03:51:11;6.60;;;2.67;;
65096;SDS011;51686;46.758;4.356;2023-12-14T03:53:57;6.10;;;2.50;;
65096;SDS011;51686;46.758;4.356;2023-12-14T03:56:44;6.97;;;2.80;;
65096;SDS011;51686;46.758;4.356;2023-12-14T03:59:31;7.10;;;2.80;;
65096;SDS011;51686;46.758;4.356;2023-12-14T04:02:19;6.85;;;3.00;;
65096;SDS011;51686;46.758;4.356;2023-12-14T04:05:06;7.35;;;3.20;;
65096;SDS011;51686;46.758;4.356;2023-12-14T04:07:55;6.38;;;2.85;;
65096;SDS011;51686;46.758;4.356;2023-12-14T04:10:42;7.65;;;2.92;;
65096;SDS011;51686;46.758;4.356;2023-12-14T04:13:29;7.10;;;3.40;;
65096;SDS011;51686;46.758;4.356;2023-12-14T04:16:19;6.60;;;3.00;;
65096;SDS011;51686;46.758;4.356;2023-12-14T04:19:09;6.80;;;2.85;;
65096;SDS011;51686;46.758;4.356;2023-12-14T04:21:57;6.90;;;3.00;;
65096;SDS011;51686;46.758;4.356;2023-12-14T04:24:44;7.57;;;2.90;;
65096;SDS011;51686;46.758;4.356;2023-12-14T04:27:31;6.10;;;2.83;;
65096;SDS011;51686;46.758;4.356;2023-12-14T04:30:18;7.32;;;3.10;;
65096;SDS011;51686;46.758;4.356;2023-12-14T04:33:04;8.15;;;3.67;;
65096;SDS011;51686;46.758;4.356;2023-12-14T04:35:51;7.50;;;3.60;;
65096;SDS011;51686;46.758;4.356;2023-12-14T04:38:39;6.97;;;3.33;;
65096;SDS011;51686;46.758;4.356;2023-12-14T04:41:26;7.32;;;3.38;;
65096;SDS011;51686;46.758;4.356;2023-12-14T04:44:13;7.63;;;3.55;;
65096;SDS011;51686;46.758;4.356;2023-12-14T04:47:00;7.50;;;3.40;;
65096;SDS011;51686;46.758;4.356;2023-12-14T04:49:47;7.72;;;3.90;;
65096;SDS011;51686;46.758;4.356;2023-12-14T04:52:34;7.97;;;3.80;;
65096;SDS011;51686;46.758;4.356;2023-12-14T04:55:21;7.38;;;3.60;;
65096;SDS011;51686;46.758;4.356;2023-12-14T04:58:08;8.45;;;3.83;;
65096;SDS011;51686;46.758;4.356;2023-12-14T05:00:55;7.63;;;3.60;;
65096;SDS011;51686;46.758;4.356;2023-12-14T05:03:42;7.32;;;3.42;;
65096;SDS011;51686;46.758;4.356;2023-12-14T05:06:29;8.20;;;3.72;;
65096;SDS011;51686;46.758;4.356;2023-12-14T05:09:16;8.00;;;3.85;;
65096;SDS011;51686;46.758;4.356;2023-12-14T05:12:03;8.32;;;3.60;;
65096;SDS011;51686;46.758;4.356;2023-12-14T05:14:51;8.60;;;4.13;;
65096;SDS011;51686;46.758;4.356;2023-12-14T05:17:38;7.55;;;3.53;;
65096;SDS011;51686;46.758;4.356;2023-12-14T05:20:25;8.20;;;3.85;;
65096;SDS011;51686;46.758;4.356;2023-12-14T05:23:12;8.15;;;3.80;;
65096;SDS011;51686;46.758;4.356;2023-12-14T05:25:59;8.15;;;3.95;;
65096;SDS011;51686;46.758;4.356;2023-12-14T05:28:46;9.82;;;4.55;;
65096;SDS011;51686;46.758;4.356;2023-12-14T05:31:33;8.13;;;4.00;;
65096;SDS011;51686;46.758;4.356;2023-12-14T05:34:20;8.80;;;4.05;;
65096;SDS011;51686;46.758;4.356;2023-12-14T05:37:07;7.82;;;3.58;;
65096;SDS011;51686;46.758;4.356;2023-12-14T05:39:54;8.20;;;4.10;;
65096;SDS011;51686;46.758;4.356;2023-12-14T05:42:41;8.55;;;3.78;;
65096;SDS011;51686;46.758;4.356;2023-12-14T05:45:28;10.02;;;3.90;;
65096;SDS011;51686;46.758;4.356;2023-12-14T05:48:15;8.50;;;4.10;;
65096;SDS011;51686;46.758;4.356;2023-12-14T05:51:02;8.35;;;4.10;;
65096;SDS011;51686;46.758;4.356;2023-12-14T05:53:49;9.23;;;4.20;;
65096;SDS011;51686;46.758;4.356;2023-12-14T05:56:36;9.25;;;4.35;;
65096;SDS011;51686;46.758;4.356;2023-12-14T05:59:26;9.40;;;4.20;;
65096;SDS011;51686;46.758;4.356;2023-12-14T06:02:13;8.50;;;3.85;;
65096;SDS011;51686;46.758;4.356;2023-12-14T06:05:00;8.73;;;4.03;;
65096;SDS011;51686;46.758;4.356;2023-12-14T06:07:47;9.27;;;4.22;;
65096;SDS011;51686;46.758;4.356;2023-12-14T06:10:34;9.25;;;4.75;;
65096;SDS011;51686;46.758;4.356;2023-12-14T06:13:21;8.38;;;4.15;;
65096;SDS011;51686;46.758;4.356;2023-12-14T06:16:08;9.65;;;4.30;;
65096;SDS011;51686;46.758;4.356;2023-12-14T06:18:59;9.02;;;4.30;;
65096;SDS011;51686;46.758;4.356;2023-12-14T06:21:46;8.30;;;4.05;;
65096;SDS011;51686;46.758;4.356;2023-12-14T06:24:33;10.27;;;4.13;;
65096;SDS011;51686;46.758;4.356;2023-12-14T06:27:20;9.13;;;4.57;;
65096;SDS011;51686;46.758;4.356;2023-12-14T06:30:09;8.65;;;4.28;;
65096;SDS011;51686;46.758;4.356;2023-12-14T06:32:57;8.88;;;4.53;;
65096;SDS011;51686;46.758;4.356;2023-12-14T06:35:44;9.57;;;4.65;;
65096;SDS011;51686;46.758;4.356;2023-12-14T06:38:31;9.38;;;4.53;;
65096;SDS011;51686;46.758;4.356;2023-12-14T06:41:21;9.20;;;4.90;;
65096;SDS011;51686;46.758;4.356;2023-12-14T06:44:08;10.07;;;4.72;;
65096;SDS011;51686;46.758;4.356;2023-12-14T06:46:56;10.35;;;4.93;;
65096;SDS011;51686;46.758;4.356;2023-12-14T06:49:44;9.55;;;5.03;;
65096;SDS011;51686;46.758;4.356;2023-12-14T06:52:31;9.48;;;5.07;;
65096;SDS011;51686;46.758;4.356;2023-12-14T06:55:19;10.30;;;5.13;;
65096;SDS011;51686;46.758;4.356;2023-12-14T06:58:06;10.32;;;5.45;;
65096;SDS011;51686;46.758;4.356;2023-12-14T07:00:57;10.25;;;5.53;;
65096;SDS011;51686;46.758;4.356;2023-12-14T07:03:44;10.27;;;5.13;;
65096;SDS011;51686;46.758;4.356;2023-12-14T07:06:32;9.63;;;4.88;;
65096;SDS011;51686;46.758;4.356;2023-12-14T07:09:19;11.23;;;5.47;;
65096;SDS011;51686;46.758;4.356;2023-12-14T07:12:06;10.23;;;5.10;;
65096;SDS011;51686;46.758;4.356;2023-12-14T07:14:54;9.77;;;4.97;;
65096;SDS011;51686;46.758;4.356;2023-12-14T07:17:41;9.57;;;4.65;;
65096;SDS011;51686;46.758;4.356;2023-12-14T07:20:28;10.80;;;5.18;;
65096;SDS011;51686;46.758;4.356;2023-12-14T07:23:15;10.48;;;5.47;;
65096;SDS011;51686;46.758;4.356;2023-12-14T07:26:03;9.82;;;4.93;;
65096;SDS011;51686;46.758;4.356;2023-12-14T07:28:53;9.98;;;4.82;;
65096;SDS011;51686;46.758;4.356;2023-12-14T07:31:40;9.95;;;4.68;;
65096;SDS011;51686;46.758;4.356;2023-12-14T07:34:27;10.13;;;5.10;;
65096;SDS011;51686;46.758;4.356;2023-12-14T07:37:14;9.52;;;4.70;;
65096;SDS011;51686;46.758;4.356;2023-12-14T07:40:02;10.13;;;5.10;;
65096;SDS011;51686;46.758;4.356;2023-12-14T07:42:49;9.70;;;4.85;;
65096;SDS011;51686;46.758;4.356;2023-12-14T07:45:36;9.57;;;4.90;;
65096;SDS011;51686;46.758;4.356;2023-12-14T07:48:23;9.82;;;4.95;;
65096;SDS011;51686;46.758;4.356;2023-12-14T07:51:10;9.98;;;4.40;;
65096;SDS011;51686;46.758;4.356;2023-12-14T07:53:57;10.07;;;4.45;;
65096;SDS011;51686;46.758;4.356;2023-12-14T07:56:44;10.13;;;4.97;;
65096;SDS011;51686;46.758;4.356;2023-12-14T07:59:32;9.02;;;4.18;;
65096;SDS011;51686;46.758;4.356;2023-12-14T08:02:19;9.60;;;4.78;;
65096;SDS011;51686;46.758;4.356;2023-12-14T08:05:06;10.40;;;4.70;;
65096;SDS011;51686;46.758;4.356;2023-12-14T08:07:53;9.85;;;4.75;;
65096;SDS011;51686;46.758;4.356;2023-12-14T08:10:40;9.43;;;4.40;;
65096;SDS011;51686;46.758;4.356;2023-12-14T08:13:27;9.40;;;4.60;;
65096;SDS011;51686;46.758;4.356;2023-12-14T08:16:14;9.27;;;4.43;;
65096;SDS011;51686;46.758;4.356;2023-12-14T08:21:50;9.07;;;4.53;;
65096;SDS011;51686;46.758;4.356;2023-12-14T08:24:41;9.32;;;4.30;;
65096;SDS011;51686;46.758;4.356;2023-12-14T08:27:28;9.55;;;4.28;;
65096;SDS011;51686;46.758;4.356;2023-12-14T08:30:15;8.82;;;4.15;;
65096;SDS011;51686;46.758;4.356;2023-12-14T08:33:02;9.38;;;4.43;;
65096;SDS011;51686;46.758;4.356;2023-12-14T08:35:49;9.02;;;4.55;;
65096;SDS011;51686;46.758;4.356;2023-12-14T08:38:37;9.45;;;4.50;;
65096;SDS011;51686;46.758;4.356;2023-12-14T08:41:24;8.82;;;4.78;;
65096;SDS011;51686;46.758;4.356;2023-12-14T08:44:11;10.05;;;4.90;;
65096;SDS011;51686;46.758;4.356;2023-12-14T08:46:58;9.35;;;4.35;;
65096;SDS011;51686;46.758;4.356;2023-12-14T08:49:45;11.55;;;6.05;;
65096;SDS011;51686;46.758;4.356;2023-12-14T08:52:32;10.00;;;4.95;;
65096;SDS011;51686;46.758;4.356;2023-12-14T08:55:19;10.40;;;4.72;;
65096;SDS011;51686;46.758;4.356;2023-12-14T08:58:06;9.18;;;4.40;;
65096;SDS011;51686;46.758;4.356;2023-12-14T09:00:53;9.57;;;4.57;;
65096;SDS011;51686;46.758;4.356;2023-12-14T09:03:40;9.32;;;4.53;;
65096;SDS011;51686;46.758;4.356;2023-12-14T09:06:27;9.80;;;4.20;;
65096;SDS011;51686;46.758;4.356;2023-12-14T09:09:14;9.15;;;4.80;;
65096;SDS011;51686;46.758;4.356;2023-12-14T09:12:01;9.60;;;4.20;;
65096;SDS011;51686;46.758;4.356;2023-12-14T09:14:48;8.52;;;4.00;;
65096;SDS011;51686;46.758;4.356;2023-12-14T09:17:35;10.27;;;4.90;;
65096;SDS011;51686;46.758;4.356;2023-12-14T09:20:24;10.05;;;5.15;;
65096;SDS011;51686;46.758;4.356;2023-12-14T09:23:11;9.32;;;4.38;;
65096;SDS011;51686;46.758;4.356;2023-12-14T09:25:58;9.65;;;4.25;;
65096;SDS011;51686;46.758;4.356;2023-12-14T09:28:46;8.95;;;4.40;;
65096;SDS011;51686;46.758;4.356;2023-12-14T09:31:33;9.15;;;4.60;;
65096;SDS011;51686;46.758;4.356;2023-12-14T09:34:20;8.95;;;4.22;;
65096;SDS011;51686;46.758;4.356;2023-12-14T09:37:07;8.60;;;3.95;;
65096;SDS011;51686;46.758;4.356;2023-12-14T09:39:54;9.32;;;4.65;;
65096;SDS011;51686;46.758;4.356;2023-12-14T09:42:44;8.70;;;4.22;;
65096;SDS011;51686;46.758;4.356;2023-12-14T09:45:31;9.00;;;4.22;;
65096;SDS011;51686;46.758;4.356;2023-12-14T09:48:20;8.82;;;4.18;;
65096;SDS011;51686;46.758;4.356;2023-12-14T09:51:07;9.68;;;4.47;;
65096;SDS011;51686;46.758;4.356;2023-12-14T09:53:55;9.40;;;4.25;;
65096;SDS011;51686;46.758;4.356;2023-12-14T09:56:45;8.40;;;4.10;;
65096;SDS011;51686;46.758;4.356;2023-12-14T09:59:33;8.88;;;4.07;;
65096;SDS011;51686;46.758;4.356;2023-12-14T10:02:24;8.77;;;4.00;;
65096;SDS011;51686;46.758;4.356;2023-12-14T10:05:12;9.95;;;4.18;;
65096;SDS011;51686;46.758;4.356;2023-12-14T10:07:59;9.30;;;4.32;;
65096;SDS011;51686;46.758;4.356;2023-12-14T10:10:47;9.73;;;4.75;;
65096;SDS011;51686;46.758;4.356;2023-12-14T10:13:39;9.10;;;4.25;;
65096;SDS011;51686;46.758;4.356;2023-12-14T10:16:27;9.02;;;4.30;;
65096;SDS011;51686;46.758;4.356;2023-12-14T10:19:19;9.18;;;4.28;;
65096;SDS011;51686;46.758;4.356;2023-12-14T10:22:06;8.93;;;4.20;;
65096;SDS011;51686;46.758;4.356;2023-12-14T10:24:56;8.93;;;4.35;;
65096;SDS011;51686;46.758;4.356;2023-12-14T10:27:45;9.45;;;4.53;;
65096;SDS011;51686;46.758;4.356;2023-12-14T10:30:41;8.82;;;4.47;;
65096;SDS011;51686;46.758;4.356;2023-12-14T10:33:28;9.38;;;4.38;;
65096;SDS011;51686;46.758;4.356;2023-12-14T10:36:18;9.13;;;4.53;;
65096;SDS011;51686;46.758;4.356;2023-12-14T10:39:06;9.43;;;4.28;;
65096;SDS011;51686;46.758;4.356;2023-12-14T10:41:57;8.82;;;4.00;;
65096;SDS011;51686;46.758;4.356;2023-12-14T10:45:00;9.43;;;4.22;;
65096;SDS011;51686;46.758;4.356;2023-12-14T10:48:04;10.05;;;4.65;;
65096;SDS011;51686;46.758;4.356;2023-12-14T10:50:51;9.30;;;4.47;;
65096;SDS011;51686;46.758;4.356;2023-12-14T10:53:39;9.40;;;4.28;;
65096;SDS011;51686;46.758;4.356;2023-12-14T10:56:30;8.60;;;3.97;;
65096;SDS011;51686;46.758;4.356;2023-12-14T10:59:17;9.30;;;4.15;;
65096;SDS011;51686;46.758;4.356;2023-12-14T11:02:06;9.05;;;4.05;;
65096;SDS011;51686;46.758;4.356;2023-12-14T11:04:57;9.77;;;4.07;;
65096;SDS011;51686;46.758;4.356;2023-12-14T11:07:52;9.45;;;4.20;;
65096;SDS011;51686;46.758;4.356;2023-12-14T11:10:42;11.18;;;4.43;;
65096;SDS011;51686;46.758;4.356;2023-12-14T11:13:32;8.75;;;4.28;;
65096;SDS011;51686;46.758;4.356;2023-12-14T11:16:20;9.73;;;4.13;;
65096;SDS011;51686;46.758;4.356;2023-12-14T11:22:11;10.95;;;4.85;;
65096;SDS011;51686;46.758;4.356;2023-12-14T11:25:04;9.68;;;4.75;;
65096;SDS011;51686;46.758;4.356;2023-12-14T11:27:52;9.52;;;4.43;;
65096;SDS011;51686;46.758;4.356;2023-12-14T11:30:42;10.23;;;4.95;;
65096;SDS011;51686;46.758;4.356;2023-12-14T11:33:41;10.15;;;4.30;;
65096;SDS011;51686;46.758;4.356;2023-12-14T11:39:17;9.23;;;4.13;;
65096;SDS011;51686;46.758;4.356;2023-12-14T11:42:04;9.10;;;4.38;;
65096;SDS011;51686;46.758;4.356;2023-12-14T11:44:55;9.48;;;4.38;;
65096;SDS011;51686;46.758;4.356;2023-12-14T11:47:42;9.68;;;4.50;;
65096;SDS011;51686;46.758;4.356;2023-12-14T11:50:29;9.63;;;4.65;;
65096;SDS011;51686;46.758;4.356;2023-12-14T11:53:16;8.55;;;4.00;;
65096;SDS011;51686;46.758;4.356;2023-12-14T11:56:04;10.07;;;4.80;;
65096;SDS011;51686;46.758;4.356;2023-12-14T11:58:51;11.93;;;4.30;;
65096;SDS011;51686;46.758;4.356;2023-12-14T12:01:39;10.85;;;4.68;;
65096;SDS011;51686;46.758;4.356;2023-12-14T12:04:27;8.95;;;4.18;;
65096;SDS011;51686;46.758;4.356;2023-12-14T12:07:14;9.07;;;3.83;;
65096;SDS011;51686;46.758;4.356;2023-12-14T12:10:03;8.95;;;4.13;;
65096;SDS011;51686;46.758;4.356;2023-12-14T12:12:58;8.60;;;4.10;;
65096;SDS011;51686;46.758;4.356;2023-12-14T12:15:47;8.15;;;3.70;;
65096;SDS011;51686;46.758;4.356;2023-12-14T12:18:34;8.60;;;3.97;;
65096;SDS011;51686;46.758;4.356;2023-12-14T12:21:24;8.20;;;3.90;;
65096;SDS011;51686;46.758;4.356;2023-12-14T12:24:12;8.70;;;3.75;;
65096;SDS011;51686;46.758;4.356;2023-12-14T12:27:12;8.60;;;4.00;;
65096;SDS011;51686;46.758;4.356;2023-12-14T12:29:59;8.75;;;3.65;;
65096;SDS011;51686;46.758;4.356;2023-12-14T12:32:46;8.30;;;3.95;;
65096;SDS011;51686;46.758;4.356;2023-12-14T12:35:33;8.93;;;4.05;;
65096;SDS011;51686;46.758;4.356;2023-12-14T12:38:20;7.60;;;3.45;;
65096;SDS011;51686;46.758;4.356;2023-12-14T12:41:07;9.82;;;3.92;;
65096;SDS011;51686;46.758;4.356;2023-12-14T12:43:55;7.88;;;3.70;;
65096;SDS011;51686;46.758;4.356;2023-12-14T12:46:41;8.48;;;3.88;;
65096;SDS011;51686;46.758;4.356;2023-12-14T12:49:29;8.35;;;3.63;;
65096;SDS011;51686;46.758;4.356;2023-12-14T12:52:17;8.37;;;3.90;;
65096;SDS011;51686;46.758;4.356;2023-12-14T12:55:07;9.02;;;3.83;;
65096;SDS011;51686;46.758;4.356;2023-12-14T12:57:55;9.60;;;3.97;;
65096;SDS011;51686;46.758;4.356;2023-12-14T13:00:42;9.10;;;4.18;;
65096;SDS011;51686;46.758;4.356;2023-12-14T13:03:29;9.10;;;4.30;;
65096;SDS011;51686;46.758;4.356;2023-12-14T13:06:16;9.05;;;4.53;;
65096;SDS011;51686;46.758;4.356;2023-12-14T13:09:05;8.75;;;4.25;;
65096;SDS011;51686;46.758;4.356;2023-12-14T13:11:51;8.85;;;4.53;;
65096;SDS011;51686;46.758;4.356;2023-12-14T13:14:39;9.70;;;4.72;;
65096;SDS011;51686;46.758;4.356;2023-12-14T13:17:26;9.68;;;4.72;;
65096;SDS011;51686;46.758;4.356;2023-12-14T13:20:13;9.90;;;4.85;;
65096;SDS011;51686;46.758;4.356;2023-12-14T13:23:01;9.02;;;4.50;;
65096;SDS011;51686;46.758;4.356;2023-12-14T13:25:48;9.52;;;4.35;;
65096;SDS011;51686;46.758;4.356;2023-12-14T13:28:36;9.82;;;4.65;;
65096;SDS011;51686;46.758;4.356;2023-12-14T13:31:22;9.32;;;4.53;;
65096;SDS011;51686;46.758;4.356;2023-12-14T13:34:11;9.90;;;4.80;;
65096;SDS011;51686;46.758;4.356;2023-12-14T13:36:58;10.43;;;4.85;;
65096;SDS011;51686;46.758;4.356;2023-12-14T13:42:35;10.05;;;4.60;;
65096;SDS011;51686;46.758;4.356;2023-12-14T13:45:32;9.13;;;4.60;;
65096;SDS011;51686;46.758;4.356;2023-12-14T13:48:20;10.55;;;5.10;;
65096;SDS011;51686;46.758;4.356;2023-12-14T13:51:07;8.93;;;4.43;;
65096;SDS011;51686;46.758;4.356;2023-12-14T13:53:54;10.13;;;4.63;;
65096;SDS011;51686;46.758;4.356;2023-12-14T13:56:41;8.82;;;4.35;;
65096;SDS011;51686;46.758;4.356;2023-12-14T13:59:29;9.27;;;4.60;;
65096;SDS011;51686;46.758;4.356;2023-12-14T14:02:16;9.77;;;4.82;;
65096;SDS011;51686;46.758;4.356;2023-12-14T14:05:03;9.02;;;4.40;;
65096;SDS011;51686;46.758;4.356;2023-12-14T14:07:50;10.55;;;4.63;;
65096;SDS011;51686;46.758;4.356;2023-12-14T14:10:38;9.93;;;4.13;;
65096;SDS011;51686;46.758;4.356;2023-12-14T14:13:25;9.43;;;4.43;;
65096;SDS011;51686;46.758;4.356;2023-12-14T14:16:12;9.00;;;4.80;;
65096;SDS011;51686;46.758;4.356;2023-12-14T14:18:59;9.38;;;4.70;;
65096;SDS011;51686;46.758;4.356;2023-12-14T14:21:46;9.77;;;4.60;;
65096;SDS011;51686;46.758;4.356;2023-12-14T14:24:34;9.75;;;4.65;;
65096;SDS011;51686;46.758;4.356;2023-12-14T14:30:11;10.00;;;4.65;;
65096;SDS011;51686;46.758;4.356;2023-12-14T14:32:59;10.40;;;4.88;;
65096;SDS011;51686;46.758;4.356;2023-12-14T14:35:47;10.15;;;5.28;;
65096;SDS011;51686;46.758;4.356;2023-12-14T14:38:34;9.88;;;5.13;;
65096;SDS011;51686;46.758;4.356;2023-12-14T14:41:21;9.40;;;4.93;;
65096;SDS011;51686;46.758;4.356;2023-12-14T14:44:08;8.40;;;4.13;;
65096;SDS011;51686;46.758;4.356;2023-12-14T14:46:55;9.77;;;4.60;;
65096;SDS011;51686;46.758;4.356;2023-12-14T14:49:42;9.40;;;4.57;;
65096;SDS011;51686;46.758;4.356;2023-12-14T14:52:30;9.18;;;4.93;;
65096;SDS011;51686;46.758;4.356;2023-12-14T14:55:17;9.77;;;4.97;;
65096;SDS011;51686;46.758;4.356;2023-12-14T14:58:04;8.85;;;4.55;;
65096;SDS011;51686;46.758;4.356;2023-12-14T15:00:51;10.73;;;5.03;;
65096;SDS011;51686;46.758;4.356;2023-12-14T15:03:38;9.52;;;4.90;;
65096;SDS011;51686;46.758;4.356;2023-12-14T15:06:25;11.10;;;5.43;;
65096;SDS011;51686;46.758;4.356;2023-12-14T15:09:12;9.88;;;5.18;;
65096;SDS011;51686;46.758;4.356;2023-12-14T15:11:59;10.18;;;5.43;;
65096;SDS011;51686;46.758;4.356;2023-12-14T15:14:46;9.55;;;4.60;;
65096;SDS011;51686;46.758;4.356;2023-12-14T15:17:33;9.82;;;5.07;;
65096;SDS011;51686;46.758;4.356;2023-12-14T15:20:20;10.60;;;5.13;;
65096;SDS011;51686;46.758;4.356;2023-12-14T15:23:07;10.65;;;5.18;;
65096;SDS011;51686;46.758;4.356;2023-12-14T15:25:54;8.68;;;4.43;;
65096;SDS011;51686;46.758;4.356;2023-12-14T15:28:41;9.43;;;4.90;;
65096;SDS011;51686;46.758;4.356;2023-12-14T15:31:28;9.18;;;4.80;;
65096;SDS011;51686;46.758;4.356;2023-12-14T15:34:15;10.32;;;4.95;;
65096;SDS011;51686;46.758;4.356;2023-12-14T15:39:51;10.93;;;4.55;;
65096;SDS011;51686;46.758;4.356;2023-12-14T15:42:40;8.88;;;4.28;;
65096;SDS011;51686;46.758;4.356;2023-12-14T15:45:27;9.13;;;4.85;;
65096;SDS011;51686;46.758;4.356;2023-12-14T15:48:19;11.32;;;4.60;;
65096;SDS011;51686;46.758;4.356;2023-12-14T15:51:06;9.60;;;4.80;;
65096;SDS011;51686;46.758;4.356;2023-12-14T15:53:56;9.68;;;4.63;;
65096;SDS011;51686;46.758;4.356;2023-12-14T15:56:44;8.88;;;4.57;;
65096;SDS011;51686;46.758;4.356;2023-12-14T15:59:31;9.45;;;4.82;;
65096;SDS011;51686;46.758;4.356;2023-12-14T16:02:19;9.82;;;4.75;;
65096;SDS011;51686;46.758;4.356;2023-12-14T16:05:06;10.40;;;4.75;;
65096;SDS011;51686;46.758;4.356;2023-12-14T16:07:54;8.68;;;4.53;;
65096;SDS011;51686;46.758;4.356;2023-12-14T16:10:41;8.73;;;4.15;;
65096;SDS011;51686;46.758;4.356;2023-12-14T16:13:31;9.48;;;3.95;;
65096;SDS011;51686;46.758;4.356;2023-12-14T16:16:18;10.73;;;4.40;;
65096;SDS011;51686;46.758;4.356;2023-12-14T16:19:05;8.10;;;4.20;;
65096;SDS011;51686;46.758;4.356;2023-12-14T16:21:52;8.63;;;4.10;;
65096;SDS011;51686;46.758;4.356;2023-12-14T16:24:39;8.75;;;4.32;;
65096;SDS011;51686;46.758;4.356;2023-12-14T16:27:26;8.32;;;3.95;;
65096;SDS011;51686;46.758;4.356;2023-12-14T16:30:13;8.55;;;3.95;;
65096;SDS011;51686;46.758;4.356;2023-12-14T16:33:00;8.30;;;4.07;;
65096;SDS011;51686;46.758;4.356;2023-12-14T16:35:47;8.38;;;3.83;;
65096;SDS011;51686;46.758;4.356;2023-12-14T16:38:34;8.20;;;4.13;;
65096;SDS011;51686;46.758;4.356;2023-12-14T16:41:21;8.13;;;3.90;;
65096;SDS011;51686;46.758;4.356;2023-12-14T16:44:08;8.57;;;3.78;;
65096;SDS011;51686;46.758;4.356;2023-12-14T16:46:56;7.93;;;3.72;;
65096;SDS011;51686;46.758;4.356;2023-12-14T16:49:43;8.65;;;3.85;;
65096;SDS011;51686;46.758;4.356;2023-12-14T16:52:30;7.90;;;3.50;;
65096;SDS011;51686;46.758;4.356;2023-12-14T16:55:17;8.32;;;4.07;;
65096;SDS011;51686;46.758;4.356;2023-12-14T16:58:04;7.85;;;3.80;;
65096;SDS011;51686;46.758;4.356;2023-12-14T17:00:51;7.93;;;3.63;;
65096;SDS011;51686;46.758;4.356;2023-12-14T17:03:40;7.63;;;3.55;;
65096;SDS011;51686;46.758;4.356;2023-12-14T17:06:27;7.60;;;3.47;;
65096;SDS011;51686;46.758;4.356;2023-12-14T17:09:14;8.52;;;3.67;;